sensor_id;sensor_type;location;lat;lon;timestamp;P1;durP1;ratioP1;P2;durP2;ratioP2
12707;SDS011;6418;50.824;4.718;2024-02-21T00:01:14;33.70;;;17.33;;
12707;SDS011;6418;50.824;4.718;2024-02-21T00:03:41;38.30;;;17.23;;
12707;SDS011;6418;50.824;4.718;2024-02-21T00:06:08;33.40;;;17.77;;
12707;SDS011;6418;50.824;4.718;2024-02-21T00:08:35;36.23;;;17.33;;
12707;SDS011;6418;50.824;4.718;2024-02-21T00:11:02;35.77;;;17.57;;
12707;SDS011;6418;50.824;4.718;2024-02-21T00:13:31;34.60;;;18.03;;
12707;SDS011;6418;50.824;4.718;2024-02-21T00:15:59;37.67;;;17.63;;
12707;SDS011;6418;50.824;4.718;2024-02-21T00:18:27;40.00;;;17.63;;
12707;SDS011;6418;50.824;4.718;2024-02-21T00:20:53;35.37;;;17.10;;
12707;SDS011;6418;50.824;4.718;2024-02-21T00:23:20;34.50;;;17.00;;
12707;SDS011;6418;50.824;4.718;2024-02-21T00:25:47;33.53;;;17.57;;
12707;SDS011;6418;50.824;4.718;2024-02-21T00:28:14;34.03;;;17.07;;
12707;SDS011;6418;50.824;4.718;2024-02-21T00:30:43;38.03;;;17.67;;
12707;SDS011;6418;50.824;4.718;2024-02-21T00:33:10;33.13;;;16.37;;
12707;SDS011;6418;50.824;4.718;2024-02-21T00:35:37;33.50;;;16.70;;
12707;SDS011;6418;50.824;4.718;2024-02-21T00:38:04;35.57;;;16.87;;
12707;SDS011;6418;50.824;4.718;2024-02-21T00:40:31;33.83;;;16.53;;
12707;SDS011;6418;50.824;4.718;2024-02-21T00:42:57;36.70;;;17.03;;
12707;SDS011;6418;50.824;4.718;2024-02-21T00:45:24;37.97;;;16.63;;
12707;SDS011;6418;50.824;4.718;2024-02-21T00:47:52;36.80;;;17.03;;
12707;SDS011;6418;50.824;4.718;2024-02-21T00:50:19;35.37;;;17.03;;
12707;SDS011;6418;50.824;4.718;2024-02-21T00:52:46;36.90;;;16.60;;
12707;SDS011;6418;50.824;4.718;2024-02-21T00:55:14;29.23;;;15.70;;
12707;SDS011;6418;50.824;4.718;2024-02-21T00:57:40;33.67;;;16.73;;
12707;SDS011;6418;50.824;4.718;2024-02-21T01:00:08;33.87;;;16.50;;
12707;SDS011;6418;50.824;4.718;2024-02-21T01:02:35;37.13;;;16.87;;
12707;SDS011;6418;50.824;4.718;2024-02-21T01:05:04;34.80;;;16.07;;
12707;SDS011;6418;50.824;4.718;2024-02-21T01:07:31;34.67;;;15.97;;
12707;SDS011;6418;50.824;4.718;2024-02-21T01:09:58;32.57;;;15.03;;
12707;SDS011;6418;50.824;4.718;2024-02-21T01:12:25;35.17;;;16.23;;
12707;SDS011;6418;50.824;4.718;2024-02-21T01:14:52;29.47;;;15.00;;
12707;SDS011;6418;50.824;4.718;2024-02-21T01:17:18;30.60;;;14.47;;
12707;SDS011;6418;50.824;4.718;2024-02-21T01:19:46;32.50;;;15.90;;
12707;SDS011;6418;50.824;4.718;2024-02-21T01:22:14;32.87;;;15.80;;
12707;SDS011;6418;50.824;4.718;2024-02-21T01:24:41;32.87;;;14.23;;
12707;SDS011;6418;50.824;4.718;2024-02-21T01:27:08;31.47;;;14.97;;
12707;SDS011;6418;50.824;4.718;2024-02-21T01:29:35;27.27;;;14.47;;
12707;SDS011;6418;50.824;4.718;2024-02-21T01:32:02;30.57;;;14.80;;
12707;SDS011;6418;50.824;4.718;2024-02-21T01:34:29;30.20;;;13.77;;
12707;SDS011;6418;50.824;4.718;2024-02-21T01:36:56;30.80;;;13.77;;
12707;SDS011;6418;50.824;4.718;2024-02-21T01:39:24;31.20;;;14.73;;
12707;SDS011;6418;50.824;4.718;2024-02-21T01:41:51;27.17;;;13.50;;
12707;SDS011;6418;50.824;4.718;2024-02-21T01:44:18;27.30;;;13.30;;
12707;SDS011;6418;50.824;4.718;2024-02-21T01:46:44;28.93;;;13.47;;
12707;SDS011;6418;50.824;4.718;2024-02-21T01:49:11;32.10;;;14.30;;
12707;SDS011;6418;50.824;4.718;2024-02-21T01:51:38;34.60;;;15.00;;
12707;SDS011;6418;50.824;4.718;2024-02-21T01:54:06;25.90;;;13.67;;
12707;SDS011;6418;50.824;4.718;2024-02-21T01:56:34;27.57;;;13.67;;
12707;SDS011;6418;50.824;4.718;2024-02-21T01:59:01;33.70;;;14.07;;
12707;SDS011;6418;50.824;4.718;2024-02-21T02:01:29;31.27;;;13.80;;
12707;SDS011;6418;50.824;4.718;2024-02-21T02:03:56;29.80;;;14.03;;
12707;SDS011;6418;50.824;4.718;2024-02-21T02:06:25;31.20;;;14.43;;
12707;SDS011;6418;50.824;4.718;2024-02-21T02:08:52;30.50;;;14.20;;
12707;SDS011;6418;50.824;4.718;2024-02-21T02:11:19;31.50;;;15.10;;
12707;SDS011;6418;50.824;4.718;2024-02-21T02:13:47;30.73;;;14.10;;
12707;SDS011;6418;50.824;4.718;2024-02-21T02:16:14;29.07;;;14.10;;
12707;SDS011;6418;50.824;4.718;2024-02-21T02:18:41;34.30;;;14.73;;
12707;SDS011;6418;50.824;4.718;2024-02-21T02:21:10;27.67;;;14.30;;
12707;SDS011;6418;50.824;4.718;2024-02-21T02:23:46;33.00;;;14.23;;
12707;SDS011;6418;50.824;4.718;2024-02-21T02:26:13;28.90;;;13.90;;
12707;SDS011;6418;50.824;4.718;2024-02-21T02:28:40;29.93;;;14.00;;
12707;SDS011;6418;50.824;4.718;2024-02-21T02:31:07;28.83;;;13.87;;
12707;SDS011;6418;50.824;4.718;2024-02-21T02:33:34;32.57;;;14.20;;
12707;SDS011;6418;50.824;4.718;2024-02-21T02:36:01;32.70;;;14.53;;
12707;SDS011;6418;50.824;4.718;2024-02-21T02:38:28;28.23;;;14.33;;
12707;SDS011;6418;50.824;4.718;2024-02-21T02:40:56;27.20;;;13.60;;
12707;SDS011;6418;50.824;4.718;2024-02-21T02:43:23;27.67;;;13.70;;
12707;SDS011;6418;50.824;4.718;2024-02-21T02:45:50;30.73;;;13.83;;
12707;SDS011;6418;50.824;4.718;2024-02-21T02:48:16;24.73;;;13.17;;
12707;SDS011;6418;50.824;4.718;2024-02-21T02:50:44;29.27;;;12.80;;
12707;SDS011;6418;50.824;4.718;2024-02-21T02:53:12;23.83;;;12.73;;
12707;SDS011;6418;50.824;4.718;2024-02-21T02:55:38;22.73;;;12.33;;
12707;SDS011;6418;50.824;4.718;2024-02-21T02:58:07;27.97;;;12.60;;
12707;SDS011;6418;50.824;4.718;2024-02-21T03:00:34;23.93;;;12.80;;
12707;SDS011;6418;50.824;4.718;2024-02-21T03:03:01;28.20;;;13.13;;
12707;SDS011;6418;50.824;4.718;2024-02-21T03:05:29;27.17;;;13.00;;
12707;SDS011;6418;50.824;4.718;2024-02-21T03:07:56;27.07;;;13.30;;
12707;SDS011;6418;50.824;4.718;2024-02-21T03:10:23;29.13;;;12.73;;
12707;SDS011;6418;50.824;4.718;2024-02-21T03:12:50;27.97;;;13.27;;
12707;SDS011;6418;50.824;4.718;2024-02-21T03:15:20;26.97;;;12.80;;
12707;SDS011;6418;50.824;4.718;2024-02-21T03:17:47;26.37;;;12.90;;
12707;SDS011;6418;50.824;4.718;2024-02-21T03:20:13;31.67;;;13.10;;
12707;SDS011;6418;50.824;4.718;2024-02-21T03:22:41;26.73;;;12.63;;
12707;SDS011;6418;50.824;4.718;2024-02-21T03:25:08;28.53;;;12.47;;
12707;SDS011;6418;50.824;4.718;2024-02-21T03:27:36;23.70;;;12.97;;
12707;SDS011;6418;50.824;4.718;2024-02-21T03:30:03;28.80;;;13.57;;
12707;SDS011;6418;50.824;4.718;2024-02-21T03:32:32;25.03;;;13.03;;
12707;SDS011;6418;50.824;4.718;2024-02-21T03:34:59;27.37;;;13.33;;
12707;SDS011;6418;50.824;4.718;2024-02-21T03:37:26;26.07;;;12.37;;
12707;SDS011;6418;50.824;4.718;2024-02-21T03:39:53;30.97;;;13.03;;
12707;SDS011;6418;50.824;4.718;2024-02-21T03:42:20;24.47;;;12.73;;
12707;SDS011;6418;50.824;4.718;2024-02-21T03:44:47;28.07;;;13.47;;
12707;SDS011;6418;50.824;4.718;2024-02-21T03:47:14;25.63;;;12.63;;
12707;SDS011;6418;50.824;4.718;2024-02-21T03:49:42;26.70;;;13.17;;
12707;SDS011;6418;50.824;4.718;2024-02-21T03:52:09;29.93;;;13.27;;
12707;SDS011;6418;50.824;4.718;2024-02-21T03:54:36;27.37;;;12.97;;
12707;SDS011;6418;50.824;4.718;2024-02-21T03:57:02;25.30;;;12.63;;
12707;SDS011;6418;50.824;4.718;2024-02-21T03:59:31;28.83;;;13.27;;
12707;SDS011;6418;50.824;4.718;2024-02-21T04:01:58;26.40;;;13.30;;
12707;SDS011;6418;50.824;4.718;2024-02-21T04:04:25;26.60;;;12.90;;
12707;SDS011;6418;50.824;4.718;2024-02-21T04:06:53;30.17;;;13.17;;
12707;SDS011;6418;50.824;4.718;2024-02-21T04:09:20;24.93;;;12.57;;
12707;SDS011;6418;50.824;4.718;2024-02-21T04:11:47;26.87;;;13.50;;
12707;SDS011;6418;50.824;4.718;2024-02-21T04:14:14;26.70;;;13.73;;
12707;SDS011;6418;50.824;4.718;2024-02-21T04:16:41;30.60;;;13.90;;
12707;SDS011;6418;50.824;4.718;2024-02-21T04:19:08;25.57;;;13.63;;
12707;SDS011;6418;50.824;4.718;2024-02-21T04:21:35;27.93;;;13.67;;
12707;SDS011;6418;50.824;4.718;2024-02-21T04:24:03;27.87;;;13.23;;
12707;SDS011;6418;50.824;4.718;2024-02-21T04:26:30;25.70;;;13.27;;
12707;SDS011;6418;50.824;4.718;2024-02-21T04:28:57;28.03;;;13.37;;
12707;SDS011;6418;50.824;4.718;2024-02-21T04:31:24;31.80;;;14.43;;
12707;SDS011;6418;50.824;4.718;2024-02-21T04:33:51;28.17;;;13.90;;
12707;SDS011;6418;50.824;4.718;2024-02-21T04:36:18;30.83;;;13.60;;
12707;SDS011;6418;50.824;4.718;2024-02-21T04:38:45;31.67;;;14.80;;
12707;SDS011;6418;50.824;4.718;2024-02-21T04:41:13;28.77;;;13.90;;
12707;SDS011;6418;50.824;4.718;2024-02-21T04:43:40;26.80;;;14.33;;
12707;SDS011;6418;50.824;4.718;2024-02-21T04:46:07;31.10;;;14.57;;
12707;SDS011;6418;50.824;4.718;2024-02-21T04:48:34;27.20;;;13.37;;
12707;SDS011;6418;50.824;4.718;2024-02-21T04:51:01;25.00;;;13.90;;
12707;SDS011;6418;50.824;4.718;2024-02-21T04:53:28;27.73;;;13.23;;
12707;SDS011;6418;50.824;4.718;2024-02-21T04:55:55;27.53;;;14.07;;
12707;SDS011;6418;50.824;4.718;2024-02-21T04:58:23;24.13;;;13.40;;
12707;SDS011;6418;50.824;4.718;2024-02-21T05:00:50;30.97;;;13.73;;
12707;SDS011;6418;50.824;4.718;2024-02-21T05:03:18;25.93;;;12.83;;
12707;SDS011;6418;50.824;4.718;2024-02-21T05:05:45;27.70;;;13.03;;
12707;SDS011;6418;50.824;4.718;2024-02-21T05:08:12;25.10;;;13.67;;
12707;SDS011;6418;50.824;4.718;2024-02-21T05:10:39;26.40;;;13.37;;
12707;SDS011;6418;50.824;4.718;2024-02-21T05:13:06;25.57;;;12.87;;
12707;SDS011;6418;50.824;4.718;2024-02-21T05:15:34;25.23;;;12.43;;
12707;SDS011;6418;50.824;4.718;2024-02-21T05:18:01;24.73;;;12.20;;
12707;SDS011;6418;50.824;4.718;2024-02-21T05:20:28;24.53;;;12.67;;
12707;SDS011;6418;50.824;4.718;2024-02-21T05:22:55;25.47;;;12.60;;
12707;SDS011;6418;50.824;4.718;2024-02-21T05:25:22;24.63;;;11.53;;
12707;SDS011;6418;50.824;4.718;2024-02-21T05:27:50;24.23;;;12.23;;
12707;SDS011;6418;50.824;4.718;2024-02-21T05:30:18;22.90;;;12.10;;
12707;SDS011;6418;50.824;4.718;2024-02-21T05:32:47;21.73;;;11.57;;
12707;SDS011;6418;50.824;4.718;2024-02-21T05:35:14;25.27;;;11.80;;
12707;SDS011;6418;50.824;4.718;2024-02-21T05:37:41;22.77;;;12.17;;
12707;SDS011;6418;50.824;4.718;2024-02-21T05:40:08;23.80;;;11.20;;
12707;SDS011;6418;50.824;4.718;2024-02-21T05:42:38;21.80;;;11.77;;
12707;SDS011;6418;50.824;4.718;2024-02-21T05:45:05;23.73;;;11.20;;
12707;SDS011;6418;50.824;4.718;2024-02-21T05:47:32;22.37;;;11.07;;
12707;SDS011;6418;50.824;4.718;2024-02-21T05:50:00;22.23;;;11.33;;
12707;SDS011;6418;50.824;4.718;2024-02-21T05:52:27;20.37;;;11.37;;
12707;SDS011;6418;50.824;4.718;2024-02-21T05:54:54;21.40;;;11.63;;
12707;SDS011;6418;50.824;4.718;2024-02-21T05:57:21;18.90;;;11.33;;
12707;SDS011;6418;50.824;4.718;2024-02-21T05:59:48;19.17;;;10.27;;
12707;SDS011;6418;50.824;4.718;2024-02-21T06:02:15;18.63;;;10.27;;
12707;SDS011;6418;50.824;4.718;2024-02-21T06:04:42;19.43;;;10.77;;
12707;SDS011;6418;50.824;4.718;2024-02-21T06:07:10;20.97;;;11.20;;
12707;SDS011;6418;50.824;4.718;2024-02-21T06:09:37;22.80;;;10.70;;
12707;SDS011;6418;50.824;4.718;2024-02-21T06:12:04;20.93;;;11.30;;
12707;SDS011;6418;50.824;4.718;2024-02-21T06:14:31;24.37;;;11.43;;
12707;SDS011;6418;50.824;4.718;2024-02-21T06:16:58;17.90;;;10.70;;
12707;SDS011;6418;50.824;4.718;2024-02-21T06:19:25;21.33;;;11.63;;
12707;SDS011;6418;50.824;4.718;2024-02-21T06:21:52;23.63;;;11.27;;
12707;SDS011;6418;50.824;4.718;2024-02-21T06:24:20;21.30;;;11.33;;
12707;SDS011;6418;50.824;4.718;2024-02-21T06:26:47;22.47;;;11.33;;
12707;SDS011;6418;50.824;4.718;2024-02-21T06:29:14;20.30;;;11.33;;
12707;SDS011;6418;50.824;4.718;2024-02-21T06:31:41;21.63;;;11.43;;
12707;SDS011;6418;50.824;4.718;2024-02-21T06:34:08;25.10;;;11.60;;
12707;SDS011;6418;50.824;4.718;2024-02-21T06:36:35;25.00;;;12.63;;
12707;SDS011;6418;50.824;4.718;2024-02-21T06:39:02;23.20;;;12.53;;
12707;SDS011;6418;50.824;4.718;2024-02-21T06:41:33;22.20;;;12.30;;
12707;SDS011;6418;50.824;4.718;2024-02-21T06:44:01;20.53;;;12.13;;
12707;SDS011;6418;50.824;4.718;2024-02-21T06:46:28;23.83;;;12.97;;
12707;SDS011;6418;50.824;4.718;2024-02-21T06:48:56;23.50;;;12.90;;
12707;SDS011;6418;50.824;4.718;2024-02-21T06:51:23;24.47;;;13.23;;
12707;SDS011;6418;50.824;4.718;2024-02-21T06:53:50;23.60;;;14.57;;
12707;SDS011;6418;50.824;4.718;2024-02-21T06:56:17;27.77;;;15.47;;
12707;SDS011;6418;50.824;4.718;2024-02-21T06:58:45;24.60;;;15.10;;
12707;SDS011;6418;50.824;4.718;2024-02-21T07:01:12;25.07;;;14.67;;
12707;SDS011;6418;50.824;4.718;2024-02-21T07:03:39;28.80;;;15.10;;
12707;SDS011;6418;50.824;4.718;2024-02-21T07:06:06;28.90;;;15.40;;
12707;SDS011;6418;50.824;4.718;2024-02-21T07:08:33;29.07;;;16.67;;
12707;SDS011;6418;50.824;4.718;2024-02-21T07:11:00;32.80;;;16.60;;
12707;SDS011;6418;50.824;4.718;2024-02-21T07:13:27;28.57;;;16.17;;
12707;SDS011;6418;50.824;4.718;2024-02-21T07:15:56;29.87;;;16.73;;
12707;SDS011;6418;50.824;4.718;2024-02-21T07:18:23;30.73;;;17.27;;
12707;SDS011;6418;50.824;4.718;2024-02-21T07:20:50;29.87;;;17.10;;
12707;SDS011;6418;50.824;4.718;2024-02-21T07:23:17;33.37;;;17.40;;
12707;SDS011;6418;50.824;4.718;2024-02-21T07:25:45;27.83;;;16.63;;
12707;SDS011;6418;50.824;4.718;2024-02-21T07:28:11;32.40;;;18.17;;
12707;SDS011;6418;50.824;4.718;2024-02-21T07:30:39;32.10;;;18.20;;
12707;SDS011;6418;50.824;4.718;2024-02-21T07:33:07;30.37;;;17.23;;
12707;SDS011;6418;50.824;4.718;2024-02-21T07:35:34;31.73;;;18.23;;
12707;SDS011;6418;50.824;4.718;2024-02-21T07:38:03;32.00;;;18.93;;
12707;SDS011;6418;50.824;4.718;2024-02-21T07:40:30;31.23;;;18.03;;
12707;SDS011;6418;50.824;4.718;2024-02-21T07:42:57;35.27;;;18.60;;
12707;SDS011;6418;50.824;4.718;2024-02-21T07:45:23;31.83;;;18.50;;
12707;SDS011;6418;50.824;4.718;2024-02-21T07:47:51;29.23;;;17.27;;
12707;SDS011;6418;50.824;4.718;2024-02-21T07:50:19;29.13;;;17.03;;
12707;SDS011;6418;50.824;4.718;2024-02-21T07:52:46;30.33;;;16.80;;
12707;SDS011;6418;50.824;4.718;2024-02-21T07:55:13;29.03;;;16.17;;
12707;SDS011;6418;50.824;4.718;2024-02-21T07:57:40;33.60;;;17.17;;
12707;SDS011;6418;50.824;4.718;2024-02-21T08:00:07;28.83;;;15.63;;
12707;SDS011;6418;50.824;4.718;2024-02-21T08:02:40;29.57;;;15.90;;
12707;SDS011;6418;50.824;4.718;2024-02-21T08:05:08;25.10;;;14.63;;
12707;SDS011;6418;50.824;4.718;2024-02-21T08:07:38;28.50;;;14.23;;
12707;SDS011;6418;50.824;4.718;2024-02-21T08:10:06;26.80;;;13.87;;
12707;SDS011;6418;50.824;4.718;2024-02-21T08:12:33;23.03;;;13.33;;
12707;SDS011;6418;50.824;4.718;2024-02-21T08:15:00;23.53;;;12.77;;
12707;SDS011;6418;50.824;4.718;2024-02-21T08:17:28;26.27;;;13.37;;
12707;SDS011;6418;50.824;4.718;2024-02-21T08:19:55;24.63;;;13.80;;
12707;SDS011;6418;50.824;4.718;2024-02-21T08:22:22;23.50;;;12.93;;
12707;SDS011;6418;50.824;4.718;2024-02-21T08:24:50;24.33;;;12.60;;
12707;SDS011;6418;50.824;4.718;2024-02-21T08:27:17;23.80;;;11.90;;
12707;SDS011;6418;50.824;4.718;2024-02-21T08:29:44;20.27;;;11.50;;
12707;SDS011;6418;50.824;4.718;2024-02-21T08:32:11;21.07;;;11.07;;
12707;SDS011;6418;50.824;4.718;2024-02-21T08:34:38;21.07;;;10.57;;
12707;SDS011;6418;50.824;4.718;2024-02-21T08:37:05;19.70;;;10.83;;
12707;SDS011;6418;50.824;4.718;2024-02-21T08:39:33;19.70;;;10.20;;
12707;SDS011;6418;50.824;4.718;2024-02-21T08:42:01;19.57;;;10.53;;
12707;SDS011;6418;50.824;4.718;2024-02-21T08:44:28;19.10;;;9.40;;
12707;SDS011;6418;50.824;4.718;2024-02-21T08:46:55;22.47;;;10.37;;
12707;SDS011;6418;50.824;4.718;2024-02-21T08:49:22;19.47;;;9.60;;
12707;SDS011;6418;50.824;4.718;2024-02-21T08:51:52;21.97;;;9.43;;
12707;SDS011;6418;50.824;4.718;2024-02-21T08:54:19;18.87;;;9.10;;
12707;SDS011;6418;50.824;4.718;2024-02-21T08:56:46;19.47;;;9.57;;
12707;SDS011;6418;50.824;4.718;2024-02-21T08:59:14;19.67;;;8.90;;
12707;SDS011;6418;50.824;4.718;2024-02-21T09:01:41;21.80;;;9.00;;
12707;SDS011;6418;50.824;4.718;2024-02-21T09:04:08;17.80;;;8.50;;
12707;SDS011;6418;50.824;4.718;2024-02-21T09:06:35;16.13;;;7.90;;
12707;SDS011;6418;50.824;4.718;2024-02-21T09:09:06;17.67;;;8.67;;
12707;SDS011;6418;50.824;4.718;2024-02-21T09:11:33;19.80;;;8.17;;
12707;SDS011;6418;50.824;4.718;2024-02-21T09:14:00;18.20;;;8.57;;
12707;SDS011;6418;50.824;4.718;2024-02-21T09:16:30;16.00;;;8.90;;
12707;SDS011;6418;50.824;4.718;2024-02-21T09:18:57;20.77;;;9.20;;
12707;SDS011;6418;50.824;4.718;2024-02-21T09:21:24;17.80;;;8.63;;
12707;SDS011;6418;50.824;4.718;2024-02-21T09:23:51;17.07;;;8.40;;
12707;SDS011;6418;50.824;4.718;2024-02-21T09:26:18;15.87;;;8.47;;
12707;SDS011;6418;50.824;4.718;2024-02-21T09:28:45;18.60;;;8.47;;
12707;SDS011;6418;50.824;4.718;2024-02-21T09:31:12;17.93;;;7.90;;
12707;SDS011;6418;50.824;4.718;2024-02-21T09:33:40;17.93;;;8.50;;
12707;SDS011;6418;50.824;4.718;2024-02-21T09:36:07;16.30;;;7.80;;
12707;SDS011;6418;50.824;4.718;2024-02-21T09:38:34;17.20;;;8.33;;
12707;SDS011;6418;50.824;4.718;2024-02-21T09:41:04;20.10;;;8.33;;
12707;SDS011;6418;50.824;4.718;2024-02-21T09:43:40;20.30;;;8.40;;
12707;SDS011;6418;50.824;4.718;2024-02-21T09:46:08;18.77;;;7.90;;
12707;SDS011;6418;50.824;4.718;2024-02-21T09:48:45;17.03;;;7.70;;
12707;SDS011;6418;50.824;4.718;2024-02-21T09:51:24;15.73;;;7.47;;
12707;SDS011;6418;50.824;4.718;2024-02-21T09:53:55;16.27;;;7.80;;
12707;SDS011;6418;50.824;4.718;2024-02-21T09:56:23;15.83;;;7.67;;
12707;SDS011;6418;50.824;4.718;2024-02-21T09:58:50;16.10;;;7.43;;
12707;SDS011;6418;50.824;4.718;2024-02-21T10:01:17;14.97;;;7.37;;
12707;SDS011;6418;50.824;4.718;2024-02-21T10:03:45;16.73;;;7.50;;
12707;SDS011;6418;50.824;4.718;2024-02-21T10:06:13;16.30;;;7.17;;
12707;SDS011;6418;50.824;4.718;2024-02-21T10:08:39;15.47;;;6.87;;
12707;SDS011;6418;50.824;4.718;2024-02-21T10:11:06;16.53;;;7.30;;
12707;SDS011;6418;50.824;4.718;2024-02-21T10:13:34;15.37;;;6.90;;
12707;SDS011;6418;50.824;4.718;2024-02-21T10:16:03;16.80;;;7.60;;
12707;SDS011;6418;50.824;4.718;2024-02-21T10:18:31;16.47;;;7.13;;
12707;SDS011;6418;50.824;4.718;2024-02-21T10:21:03;17.67;;;7.37;;
12707;SDS011;6418;50.824;4.718;2024-02-21T10:23:40;17.07;;;7.23;;
12707;SDS011;6418;50.824;4.718;2024-02-21T10:26:08;14.53;;;7.10;;
12707;SDS011;6418;50.824;4.718;2024-02-21T10:28:36;15.37;;;7.40;;
12707;SDS011;6418;50.824;4.718;2024-02-21T10:31:06;17.40;;;7.27;;
12707;SDS011;6418;50.824;4.718;2024-02-21T10:33:34;15.47;;;7.17;;
12707;SDS011;6418;50.824;4.718;2024-02-21T10:36:08;17.00;;;7.20;;
12707;SDS011;6418;50.824;4.718;2024-02-21T10:38:36;17.77;;;7.03;;
12707;SDS011;6418;50.824;4.718;2024-02-21T10:41:04;15.27;;;6.90;;
12707;SDS011;6418;50.824;4.718;2024-02-21T10:43:35;14.03;;;7.03;;
12707;SDS011;6418;50.824;4.718;2024-02-21T10:46:06;15.53;;;6.70;;
12707;SDS011;6418;50.824;4.718;2024-02-21T10:48:38;16.07;;;6.70;;
12707;SDS011;6418;50.824;4.718;2024-02-21T10:51:13;15.03;;;6.73;;
12707;SDS011;6418;50.824;4.718;2024-02-21T10:53:44;13.50;;;6.33;;
12707;SDS011;6418;50.824;4.718;2024-02-21T10:56:19;16.13;;;6.53;;
12707;SDS011;6418;50.824;4.718;2024-02-21T10:58:50;15.17;;;6.20;;
12707;SDS011;6418;50.824;4.718;2024-02-21T11:01:18;16.33;;;6.33;;
12707;SDS011;6418;50.824;4.718;2024-02-21T11:03:47;15.70;;;6.63;;
12707;SDS011;6418;50.824;4.718;2024-02-21T11:06:17;16.43;;;6.47;;
12707;SDS011;6418;50.824;4.718;2024-02-21T11:08:45;16.93;;;6.53;;
12707;SDS011;6418;50.824;4.718;2024-02-21T11:11:12;15.33;;;6.20;;
12707;SDS011;6418;50.824;4.718;2024-02-21T11:13:42;13.10;;;6.07;;
12707;SDS011;6418;50.824;4.718;2024-02-21T11:16:11;13.17;;;5.97;;
12707;SDS011;6418;50.824;4.718;2024-02-21T11:18:47;13.57;;;5.93;;
12707;SDS011;6418;50.824;4.718;2024-02-21T11:21:14;16.43;;;6.17;;
12707;SDS011;6418;50.824;4.718;2024-02-21T11:23:42;15.20;;;6.50;;
12707;SDS011;6418;50.824;4.718;2024-02-21T11:26:10;17.17;;;6.03;;
12707;SDS011;6418;50.824;4.718;2024-02-21T11:28:44;12.97;;;5.70;;
12707;SDS011;6418;50.824;4.718;2024-02-21T11:31:11;16.40;;;5.83;;
12707;SDS011;6418;50.824;4.718;2024-02-21T11:33:40;13.20;;;5.50;;
12707;SDS011;6418;50.824;4.718;2024-02-21T11:36:07;12.73;;;5.50;;
12707;SDS011;6418;50.824;4.718;2024-02-21T11:38:36;15.20;;;5.83;;
12707;SDS011;6418;50.824;4.718;2024-02-21T11:41:03;11.83;;;5.50;;
12707;SDS011;6418;50.824;4.718;2024-02-21T11:43:35;15.33;;;5.90;;
12707;SDS011;6418;50.824;4.718;2024-02-21T11:46:02;13.87;;;5.60;;
12707;SDS011;6418;50.824;4.718;2024-02-21T11:48:31;12.27;;;5.70;;
12707;SDS011;6418;50.824;4.718;2024-02-21T11:50:58;13.27;;;5.37;;
12707;SDS011;6418;50.824;4.718;2024-02-21T11:53:25;12.97;;;6.10;;
12707;SDS011;6418;50.824;4.718;2024-02-21T11:55:57;14.50;;;5.90;;
12707;SDS011;6418;50.824;4.718;2024-02-21T11:58:24;10.07;;;5.20;;
12707;SDS011;6418;50.824;4.718;2024-02-21T12:00:51;10.87;;;5.30;;
12707;SDS011;6418;50.824;4.718;2024-02-21T12:03:18;14.23;;;6.13;;
12707;SDS011;6418;50.824;4.718;2024-02-21T12:05:46;13.03;;;5.30;;
12707;SDS011;6418;50.824;4.718;2024-02-21T12:08:13;12.73;;;5.50;;
12707;SDS011;6418;50.824;4.718;2024-02-21T12:10:41;15.07;;;5.23;;
12707;SDS011;6418;50.824;4.718;2024-02-21T12:13:10;12.93;;;5.47;;
12707;SDS011;6418;50.824;4.718;2024-02-21T12:15:38;12.27;;;5.70;;
12707;SDS011;6418;50.824;4.718;2024-02-21T12:18:06;14.00;;;5.97;;
12707;SDS011;6418;50.824;4.718;2024-02-21T12:20:32;11.23;;;5.40;;
12707;SDS011;6418;50.824;4.718;2024-02-21T12:23:01;14.63;;;5.40;;
12707;SDS011;6418;50.824;4.718;2024-02-21T12:25:29;11.93;;;5.60;;
12707;SDS011;6418;50.824;4.718;2024-02-21T12:27:56;12.60;;;5.40;;
12707;SDS011;6418;50.824;4.718;2024-02-21T12:30:26;14.00;;;5.70;;
12707;SDS011;6418;50.824;4.718;2024-02-21T12:32:53;13.13;;;5.20;;
12707;SDS011;6418;50.824;4.718;2024-02-21T12:35:20;12.97;;;5.57;;
12707;SDS011;6418;50.824;4.718;2024-02-21T12:37:47;11.87;;;5.77;;
12707;SDS011;6418;50.824;4.718;2024-02-21T12:40:13;12.60;;;5.67;;
12707;SDS011;6418;50.824;4.718;2024-02-21T12:42:40;11.87;;;5.20;;
12707;SDS011;6418;50.824;4.718;2024-02-21T12:45:08;12.67;;;5.50;;
12707;SDS011;6418;50.824;4.718;2024-02-21T12:47:37;12.77;;;5.63;;
12707;SDS011;6418;50.824;4.718;2024-02-21T12:50:05;13.20;;;5.43;;
12707;SDS011;6418;50.824;4.718;2024-02-21T12:52:32;14.07;;;5.80;;
12707;SDS011;6418;50.824;4.718;2024-02-21T12:54:59;13.00;;;5.57;;
12707;SDS011;6418;50.824;4.718;2024-02-21T12:57:26;12.20;;;5.63;;
12707;SDS011;6418;50.824;4.718;2024-02-21T12:59:54;15.33;;;6.10;;
12707;SDS011;6418;50.824;4.718;2024-02-21T13:02:21;13.77;;;5.70;;
12707;SDS011;6418;50.824;4.718;2024-02-21T13:04:49;12.43;;;5.90;;
12707;SDS011;6418;50.824;4.718;2024-02-21T13:07:16;14.10;;;6.00;;
12707;SDS011;6418;50.824;4.718;2024-02-21T13:09:43;11.97;;;5.80;;
12707;SDS011;6418;50.824;4.718;2024-02-21T13:12:10;13.73;;;6.37;;
12707;SDS011;6418;50.824;4.718;2024-02-21T13:14:37;12.33;;;5.77;;
12707;SDS011;6418;50.824;4.718;2024-02-21T13:17:04;12.83;;;6.33;;
12707;SDS011;6418;50.824;4.718;2024-02-21T13:19:32;13.60;;;5.80;;
12707;SDS011;6418;50.824;4.718;2024-02-21T13:22:00;15.67;;;5.87;;
12707;SDS011;6418;50.824;4.718;2024-02-21T13:24:27;14.90;;;5.93;;
12707;SDS011;6418;50.824;4.718;2024-02-21T13:26:54;15.07;;;6.40;;
12707;SDS011;6418;50.824;4.718;2024-02-21T13:29:21;15.33;;;6.53;;
12707;SDS011;6418;50.824;4.718;2024-02-21T13:31:48;11.70;;;5.70;;
12707;SDS011;6418;50.824;4.718;2024-02-21T13:34:15;17.03;;;6.33;;
12707;SDS011;6418;50.824;4.718;2024-02-21T13:36:43;22.13;;;6.53;;
12707;SDS011;6418;50.824;4.718;2024-02-21T13:39:11;13.77;;;6.30;;
12707;SDS011;6418;50.824;4.718;2024-02-21T13:41:40;15.13;;;6.50;;
12707;SDS011;6418;50.824;4.718;2024-02-21T13:44:08;15.87;;;6.23;;
12707;SDS011;6418;50.824;4.718;2024-02-21T13:46:35;15.07;;;6.13;;
12707;SDS011;6418;50.824;4.718;2024-02-21T13:49:03;16.57;;;5.93;;
12707;SDS011;6418;50.824;4.718;2024-02-21T13:51:31;14.80;;;6.67;;
12707;SDS011;6418;50.824;4.718;2024-02-21T13:53:59;14.63;;;6.67;;
12707;SDS011;6418;50.824;4.718;2024-02-21T13:56:27;15.00;;;6.10;;
12707;SDS011;6418;50.824;4.718;2024-02-21T13:58:54;12.73;;;6.40;;
12707;SDS011;6418;50.824;4.718;2024-02-21T14:01:21;13.87;;;6.57;;
12707;SDS011;6418;50.824;4.718;2024-02-21T14:03:48;15.90;;;6.33;;
12707;SDS011;6418;50.824;4.718;2024-02-21T14:06:15;15.23;;;6.20;;
12707;SDS011;6418;50.824;4.718;2024-02-21T14:08:42;16.30;;;6.57;;
12707;SDS011;6418;50.824;4.718;2024-02-21T14:11:09;16.20;;;6.77;;
12707;SDS011;6418;50.824;4.718;2024-02-21T14:13:37;14.40;;;6.33;;
12707;SDS011;6418;50.824;4.718;2024-02-21T14:16:08;17.37;;;6.67;;
12707;SDS011;6418;50.824;4.718;2024-02-21T14:18:37;15.90;;;7.00;;
12707;SDS011;6418;50.824;4.718;2024-02-21T14:21:06;15.23;;;7.33;;
12707;SDS011;6418;50.824;4.718;2024-02-21T14:23:32;15.33;;;6.93;;
12707;SDS011;6418;50.824;4.718;2024-02-21T14:25:59;15.97;;;6.53;;
12707;SDS011;6418;50.824;4.718;2024-02-21T14:28:27;15.60;;;7.13;;
12707;SDS011;6418;50.824;4.718;2024-02-21T14:30:55;15.53;;;7.73;;
12707;SDS011;6418;50.824;4.718;2024-02-21T14:33:23;14.87;;;7.07;;
12707;SDS011;6418;50.824;4.718;2024-02-21T14:35:50;15.93;;;7.63;;
12707;SDS011;6418;50.824;4.718;2024-02-21T14:38:17;16.57;;;7.20;;
12707;SDS011;6418;50.824;4.718;2024-02-21T14:40:45;15.40;;;7.23;;
12707;SDS011;6418;50.824;4.718;2024-02-21T14:43:12;16.03;;;7.60;;